Time;durP1;ratioP1;P1;durP2;ratioP2;P2;SDS_P1;SDS_P2;PMS_P1;PMS_P2;Temp;Humidity;BMP_temperature;BMP_pressure;BME280_temperature;BME280_humidity;BME280_pressure;Samples;Min_cycle;Max_cycle;Signal;HPM_P1;HPM_P2
2022/08/15 00:01:08;;;;;;;5.90;4.73;;;25.80;53.60;;;;;;5083974;28;20453;-69
2022/08/15 00:03:39;;;;;;;4.37;3.33;;;25.80;53.50;;;;;;5046614;28;20224;-69
2022/08/15 00:06:12;;;;;;;4.20;3.80;;;25.80;53.50;;;;;;5051075;28;20451;-68
2022/08/15 00:08:43;;;;;;;5.43;3.60;;;25.80;53.20;;;;;;5066602;28;20459;-69
2022/08/15 00:11:16;;;;;;;3.50;3.30;;;25.80;53.30;;;;;;5071121;28;20450;-69
2022/08/15 00:13:44;;;;;;;3.60;3.30;;;25.80;53.20;;;;;;5051376;28;20977;-69
2022/08/15 00:16:13;;;;;;;3.97;3.77;;;25.80;53.20;;;;;;5064567;28;20535;-69
2022/08/15 00:18:40;;;;;;;3.90;3.37;;;25.80;53.10;;;;;;5069327;28;20546;-69
2022/08/15 00:21:06;;;;;;;4.30;4.00;;;25.80;53.10;;;;;;5071714;28;21022;-69
2022/08/15 00:23:32;;;;;;;3.60;3.40;;;25.80;52.80;;;;;;5069596;28;20539;-70
2022/08/15 00:26:00;;;;;;;4.00;3.70;;;25.70;52.60;;;;;;5071770;28;20224;-70
2022/08/15 00:28:28;;;;;;;3.70;3.50;;;25.60;52.70;;;;;;5070062;28;20241;-68
2022/08/15 00:30:56;;;;;;;4.07;3.77;;;25.50;52.50;;;;;;5058498;28;20442;-69
2022/08/15 00:33:22;;;;;;;3.93;3.63;;;25.50;52.80;;;;;;5057158;28;20467;-69
2022/08/15 00:35:50;;;;;;;3.90;3.63;;;25.50;52.20;;;;;;5064366;28;20221;-69
2022/08/15 00:38:19;;;;;;;4.53;4.20;;;25.50;52.30;;;;;;5070944;28;20459;-69
2022/08/15 00:43:46;;;;;;;6.30;4.00;;;25.50;52.10;;;;;;5085799;28;20471;-70
2022/08/15 00:46:14;;;;;;;4.93;4.10;;;25.40;52.30;;;;;;5068215;28;20464;-68
2022/08/15 00:48:44;;;;;;;5.53;4.00;;;25.30;52.20;;;;;;5070489;28;20501;-69
2022/08/15 00:51:13;;;;;;;4.17;3.87;;;25.20;52.20;;;;;;5071026;28;20828;-69
2022/08/15 00:53:42;;;;;;;4.17;3.87;;;25.20;52.50;;;;;;5053623;27;20449;-69
2022/08/15 00:56:10;;;;;;;4.27;3.87;;;25.00;52.60;;;;;;5071116;28;20528;-69
2022/08/15 00:58:37;;;;;;;4.20;3.80;;;25.00;52.70;;;;;;5078861;28;20506;-69
2022/08/15 01:01:06;;;;;;;3.90;3.60;;;25.00;52.90;;;;;;5071474;28;20440;-69
2022/08/15 01:03:35;;;;;;;4.37;3.57;;;25.00;53.20;;;;;;5081994;28;20455;-69
2022/08/15 01:06:03;;;;;;;4.43;3.40;;;24.90;53.40;;;;;;5048161;28;20445;-69
2022/08/15 01:08:33;;;;;;;6.87;4.00;;;24.90;53.90;;;;;;5070201;28;20457;-69
2022/08/15 01:11:03;;;;;;;4.57;3.90;;;24.80;54.00;;;;;;5071240;28;20527;-70
2022/08/15 01:13:31;;;;;;;4.20;3.87;;;24.80;54.50;;;;;;5062525;28;20457;-69
2022/08/15 01:15:57;;;;;;;4.07;3.77;;;24.80;54.50;;;;;;5064365;28;20457;-69
2022/08/15 01:18:23;;;;;;;4.47;4.07;;;24.80;54.60;;;;;;5069412;28;20556;-69
2022/08/15 01:20:52;;;;;;;3.87;3.57;;;24.80;54.80;;;;;;5064271;28;20223;-69
2022/08/15 01:23:33;;;;;;;6.83;3.83;;;24.70;55.10;;;;;;5061384;28;20231;-69
2022/08/15 01:26:03;;;;;;;3.70;3.40;;;24.70;55.30;;;;;;5065613;28;20445;-69
2022/08/15 01:28:42;;;;;;;3.20;3.00;;;24.70;55.40;;;;;;5071236;28;20472;-69
2022/08/15 01:31:13;;;;;;;4.63;3.80;;;24.70;55.50;;;;;;5054729;28;20528;-69
2022/08/15 01:33:51;;;;;;;4.20;3.90;;;24.60;55.70;;;;;;5055315;28;20496;-69
2022/08/15 01:36:18;;;;;;;4.40;4.00;;;24.60;56.10;;;;;;5051699;28;20449;-69
2022/08/15 01:38:53;;;;;;;3.90;3.70;;;24.60;56.10;;;;;;5073040;28;20461;-69
2022/08/15 01:41:38;;;;;;;8.40;4.43;;;24.60;56.50;;;;;;5067618;28;20831;-69
2022/08/15 01:44:17;;;;;;;7.60;3.70;;;24.60;56.50;;;;;;5054127;28;20957;-68
2022/08/15 01:47:09;;;;;;;4.57;4.10;;;24.70;57.00;;;;;;5069862;28;20453;-69
2022/08/15 01:50:11;;;;;;;5.07;4.57;;;24.70;57.10;;;;;;5069896;28;20463;-69
2022/08/15 01:52:53;;;;;;;6.87;4.30;;;24.60;57.50;;;;;;5052499;28;20500;-69
2022/08/15 01:55:26;;;;;;;4.13;3.73;;;24.60;58.20;;;;;;5068471;28;20446;-69
2022/08/15 01:57:52;;;;;;;5.33;3.93;;;24.60;57.90;;;;;;5071333;28;20472;-69
2022/08/15 02:00:20;;;;;;;4.20;3.90;;;24.50;58.10;;;;;;5070167;28;20506;-70
2022/08/15 02:02:46;;;;;;;8.47;4.37;;;24.50;58.40;;;;;;5071064;27;20975;-69
2022/08/15 02:05:13;;;;;;;6.00;4.53;;;24.50;58.50;;;;;;5056469;28;20437;-70
2022/08/15 02:07:39;;;;;;;4.47;4.07;;;24.50;58.60;;;;;;5067343;28;20462;-69
2022/08/15 02:10:06;;;;;;;6.23;4.50;;;24.50;58.80;;;;;;5046510;28;20434;-70
2022/08/15 02:12:38;;;;;;;5.90;4.50;;;24.50;59.30;;;;;;5065080;28;20297;-71
2022/08/15 02:15:12;;;;;;;4.30;4.00;;;24.50;59.80;;;;;;5050951;28;20433;-68
2022/08/15 02:17:38;;;;;;;4.60;4.20;;;24.50;59.90;;;;;;5087031;28;20540;-69
2022/08/15 02:20:07;;;;;;;4.33;4.03;;;24.50;60.70;;;;;;5085047;28;20447;-69
2022/08/15 02:22:33;;;;;;;4.70;4.20;;;24.50;60.50;;;;;;5073062;28;20490;-69
2022/08/15 02:25:00;;;;;;;5.60;4.03;;;24.50;60.60;;;;;;5066327;28;20441;-70
2022/08/15 02:27:28;;;;;;;5.10;3.97;;;24.50;61.40;;;;;;5058456;28;20226;-69
2022/08/15 02:29:55;;;;;;;6.53;3.97;;;24.50;61.50;;;;;;5040402;28;20956;-69
2022/08/15 02:32:21;;;;;;;4.43;4.03;;;24.40;62.70;;;;;;5055889;28;20450;-69
2022/08/15 02:34:47;;;;;;;3.67;3.37;;;24.40;63.00;;;;;;5066009;28;20600;-69
2022/08/15 02:37:18;;;;;;;4.00;3.70;;;24.30;63.90;;;;;;5068586;28;20483;-69
2022/08/15 02:39:48;;;;;;;5.13;3.30;;;24.30;63.80;;;;;;5050495;28;20533;-69
2022/08/15 02:42:15;;;;;;;6.23;3.90;;;24.30;64.00;;;;;;5068356;28;20484;-70
2022/08/15 02:44:43;;;;;;;4.57;3.60;;;24.20;64.60;;;;;;5056396;28;20457;-69
2022/08/15 02:47:14;;;;;;;4.87;4.37;;;24.20;64.80;;;;;;5050610;28;20477;-69
2022/08/15 02:49:44;;;;;;;4.97;3.67;;;24.10;65.40;;;;;;5061026;28;20453;-69
2022/08/15 02:52:11;;;;;;;3.20;3.00;;;24.10;65.50;;;;;;5082169;28;20448;-69
2022/08/15 02:54:39;;;;;;;3.67;3.37;;;24.10;65.70;;;;;;5052306;28;20497;-69
2022/08/15 02:57:09;;;;;;;3.03;2.77;;;24.00;65.70;;;;;;5052914;28;20475;-68
2022/08/15 02:59:35;;;;;;;4.27;3.60;;;24.00;66.30;;;;;;5086364;28;20788;-69
2022/08/15 03:02:00;;;;;;;4.77;3.60;;;24.00;66.30;;;;;;5063082;28;21028;-69
2022/08/15 03:04:30;;;;;;;4.47;3.50;;;23.90;66.20;;;;;;5060174;28;20226;-69
2022/08/15 03:06:58;;;;;;;2.83;2.63;;;23.90;66.50;;;;;;5056424;28;20218;-69
2022/08/15 03:09:25;;;;;;;4.70;3.57;;;23.90;65.80;;;;;;5060655;28;20996;-69
2022/08/15 03:12:01;;;;;;;4.50;3.27;;;23.90;65.80;;;;;;5065202;28;20451;-69
2022/08/15 03:14:37;;;;;;;5.40;3.20;;;23.90;66.10;;;;;;5061435;28;20441;-69
2022/08/15 03:17:08;;;;;;;4.23;3.40;;;23.90;66.30;;;;;;5062099;28;20438;-70
2022/08/15 03:19:39;;;;;;;3.07;2.87;;;23.80;66.80;;;;;;5071615;27;20444;-69
2022/08/15 03:22:06;;;;;;;3.43;3.00;;;23.80;67.00;;;;;;5070197;28;21105;-70
2022/08/15 03:24:34;;;;;;;5.87;4.00;;;23.80;67.30;;;;;;5069333;28;20453;-69
2022/08/15 03:27:00;;;;;;;6.33;3.40;;;23.80;66.60;;;;;;5051471;28;20433;-69
2022/08/15 03:29:27;;;;;;;3.10;2.60;;;23.80;66.70;;;;;;5048873;28;20449;-69
2022/08/15 03:31:54;;;;;;;5.80;3.00;;;23.80;66.90;;;;;;5050282;28;20465;-69
2022/08/15 03:34:23;;;;;;;7.73;3.50;;;23.80;67.20;;;;;;5059871;28;20515;-69
2022/08/15 03:36:49;;;;;;;4.23;3.50;;;23.70;67.60;;;;;;5085056;28;20202;-69
2022/08/15 03:39:15;;;;;;;7.57;4.23;;;23.70;67.20;;;;;;5068497;28;20518;-69
2022/08/15 03:41:43;;;;;;;3.07;2.87;;;23.70;68.00;;;;;;5066870;28;20209;-69
2022/08/15 03:44:11;;;;;;;3.10;2.87;;;23.70;68.20;;;;;;5064745;28;20471;-69
2022/08/15 03:46:38;;;;;;;3.77;3.27;;;23.70;68.00;;;;;;5060027;28;20453;-70
2022/08/15 03:49:04;;;;;;;5.47;3.53;;;23.70;68.30;;;;;;5059158;28;20462;-70
2022/08/15 03:51:33;;;;;;;9.03;3.70;;;23.60;68.30;;;;;;5066414;28;20502;-70
2022/08/15 03:54:12;;;;;;;4.87;3.60;;;23.60;68.70;;;;;;5061828;28;20540;-69
2022/08/15 03:56:38;;;;;;;3.30;2.97;;;23.60;68.50;;;;;;5064450;28;20520;-69
2022/08/15 03:59:11;;;;;;;4.50;3.03;;;23.60;68.70;;;;;;5059730;28;20433;-70
2022/08/15 04:01:39;;;;;;;4.20;3.77;;;23.60;69.10;;;;;;5034064;28;20557;-69
2022/08/15 04:04:05;;;;;;;4.93;3.50;;;23.60;68.80;;;;;;5066679;28;20464;-69
2022/08/15 04:06:44;;;;;;;3.03;2.83;;;23.50;69.40;;;;;;5059359;28;20484;-68
2022/08/15 04:09:11;;;;;;;2.97;2.60;;;23.50;69.60;;;;;;5068079;28;21026;-69
2022/08/15 04:11:38;;;;;;;6.70;3.40;;;23.40;70.20;;;;;;5039313;28;20481;-70
2022/08/15 04:14:16;;;;;;;4.13;3.33;;;23.40;70.40;;;;;;5047133;28;20465;-70
2022/08/15 04:16:42;;;;;;;5.33;3.10;;;23.40;70.60;;;;;;5067134;28;20581;-69
2022/08/15 04:19:08;;;;;;;4.57;2.90;;;23.30;70.70;;;;;;5064994;28;20225;-69
2022/08/15 04:21:35;;;;;;;3.20;2.90;;;23.30;71.10;;;;;;5065389;28;20588;-70
2022/08/15 04:24:01;;;;;;;4.20;3.40;;;23.30;70.60;;;;;;5049088;28;20499;-69
2022/08/15 04:26:27;;;;;;;7.00;3.73;;;23.30;70.60;;;;;;5061712;28;20916;-69
2022/08/15 04:28:53;;;;;;;3.40;3.10;;;23.30;71.40;;;;;;5065309;28;20281;-68
2022/08/15 04:31:20;;;;;;;4.03;3.70;;;23.30;71.60;;;;;;5069481;28;20701;-69
2022/08/15 04:33:48;;;;;;;3.37;3.03;;;23.30;71.60;;;;;;5065752;28;20460;-69
2022/08/15 04:36:17;;;;;;;2.87;2.67;;;23.20;72.30;;;;;;5068486;28;20528;-69
2022/08/15 04:38:45;;;;;;;3.23;2.93;;;23.20;72.80;;;;;;5063317;28;20541;-69
2022/08/15 04:41:11;;;;;;;5.93;3.43;;;23.20;72.30;;;;;;5063738;28;21006;-68
2022/08/15 04:43:40;;;;;;;4.03;3.63;;;23.30;72.30;;;;;;5049326;28;20457;-69
2022/08/15 04:46:08;;;;;;;3.03;2.83;;;23.20;72.60;;;;;;5068250;28;20800;-69
2022/08/15 04:48:34;;;;;;;3.60;2.80;;;23.20;72.70;;;;;;5050691;28;20460;-69
2022/08/15 04:51:02;;;;;;;4.70;3.20;;;23.20;72.70;;;;;;5074549;28;20451;-69
2022/08/15 04:53:33;;;;;;;4.23;3.73;;;23.20;72.90;;;;;;5070708;28;20255;-68
2022/08/15 04:56:02;;;;;;;3.77;2.93;;;23.20;73.20;;;;;;5066092;28;20454;-69
2022/08/15 04:58:30;;;;;;;7.53;3.57;;;23.20;73.80;;;;;;5059388;28;20552;-69
2022/08/15 05:01:05;;;;;;;3.20;2.87;;;23.20;74.00;;;;;;5065101;28;20455;-69
2022/08/15 05:03:51;;;;;;;3.00;2.60;;;23.10;74.30;;;;;;5058682;28;20454;-69
2022/08/15 05:06:18;;;;;;;3.50;2.83;;;23.20;74.30;;;;;;5063242;28;21225;-69
2022/08/15 05:08:44;;;;;;;3.30;3.00;;;23.10;74.20;;;;;;5069640;28;20222;-69
2022/08/15 05:11:17;;;;;;;4.40;3.43;;;23.10;75.90;;;;;;5069235;28;20457;-69
2022/08/15 05:13:47;;;;;;;4.33;3.83;;;23.00;75.30;;;;;;5070559;28;20452;-69
2022/08/15 05:16:20;;;;;;;3.17;2.90;;;23.00;75.90;;;;;;5070948;28;20497;-70
2022/08/15 05:18:46;;;;;;;3.70;3.40;;;23.00;76.00;;;;;;5070671;28;20441;-69
2022/08/15 05:21:12;;;;;;;4.53;3.47;;;23.00;75.90;;;;;;5071986;28;20960;-69
2022/08/15 05:23:40;;;;;;;6.93;3.00;;;23.00;75.80;;;;;;5070061;28;20686;-69
2022/08/15 05:26:09;;;;;;;7.30;2.97;;;23.10;75.70;;;;;;5056759;28;20457;-67
2022/08/15 05:28:39;;;;;;;5.53;3.00;;;23.10;75.30;;;;;;5066238;28;20837;-70
2022/08/15 05:31:09;;;;;;;3.63;3.33;;;23.10;75.90;;;;;;5070547;28;20449;-70
2022/08/15 05:33:37;;;;;;;4.47;3.40;;;23.10;75.70;;;;;;5072044;28;20460;-70
2022/08/15 05:36:04;;;;;;;3.70;3.40;;;23.10;75.80;;;;;;5070496;28;20453;-69
2022/08/15 05:38:38;;;;;;;4.00;3.60;;;23.10;76.50;;;;;;5070508;28;20476;-70
2022/08/15 05:41:29;;;;;;;6.13;3.77;;;23.10;76.90;;;;;;5065916;28;20445;-69
2022/08/15 05:44:12;;;;;;;9.50;4.13;;;23.20;77.70;;;;;;5066682;28;20494;-69
2022/08/15 05:46:43;;;;;;;3.73;3.03;;;23.10;78.30;;;;;;5067964;28;20486;-69
2022/08/15 05:49:25;;;;;;;5.10;3.33;;;23.10;78.70;;;;;;5067154;28;20461;-70
2022/08/15 05:52:35;;;;;;;4.00;3.70;;;23.20;79.40;;;;;;5059593;28;20454;-69
2022/08/15 05:55:10;;;;;;;4.33;3.30;;;23.20;79.30;;;;;;5065342;28;20449;-69
2022/08/15 05:57:43;;;;;;;4.33;3.57;;;23.10;79.80;;;;;;5065096;28;20946;-69
2022/08/15 06:00:12;;;;;;;3.83;3.53;;;23.20;79.70;;;;;;5081018;28;20952;-68
2022/08/15 06:02:57;;;;;;;6.97;3.77;;;23.20;80.30;;;;;;5057611;28;20450;-69
2022/08/15 06:05:30;;;;;;;5.70;3.60;;;23.10;80.50;;;;;;5044669;28;20442;-69
2022/08/15 06:07:59;;;;;;;4.70;3.60;;;23.20;80.70;;;;;;5065296;28;20546;-70
2022/08/15 06:10:38;;;;;;;4.30;3.70;;;23.20;81.40;;;;;;5067376;28;20452;-69
2022/08/15 06:13:20;;;;;;;3.60;3.27;;;23.20;81.50;;;;;;5051128;28;20483;-69
2022/08/15 06:16:03;;;;;;;3.70;3.37;;;23.20;81.40;;;;;;5064502;28;20477;-69
2022/08/15 06:18:33;;;;;;;4.70;3.80;;;23.20;82.10;;;;;;5079508;28;20446;-69
2022/08/15 06:21:16;;;;;;;4.00;3.60;;;23.10;82.90;;;;;;5069743;28;20465;-69
2022/08/15 06:24:02;;;;;;;3.90;3.20;;;23.20;83.10;;;;;;5056091;28;20461;-69
2022/08/15 06:26:36;;;;;;;3.90;3.50;;;23.10;83.50;;;;;;5066625;28;20457;-70
2022/08/15 06:29:33;;;;;;;3.53;3.23;;;23.10;83.60;;;;;;5050884;28;20461;-70
2022/08/15 06:32:32;;;;;;;12.33;3.90;;;23.10;83.40;;;;;;5080567;28;20453;-69
2022/08/15 06:35:48;;;;;;;11.43;4.50;;;23.10;83.70;;;;;;5059468;28;21018;-69
2022/08/15 06:38:36;;;;;;;17.50;4.17;;;23.20;83.30;;;;;;5075523;28;20428;-70
2022/08/15 06:41:09;;;;;;;6.00;3.73;;;23.10;83.60;;;;;;5041907;28;20449;-72
2022/08/15 06:43:36;;;;;;;3.47;3.17;;;23.10;83.40;;;;;;5067912;28;20900;-69
2022/08/15 06:46:18;;;;;;;4.23;3.53;;;23.10;83.80;;;;;;5067440;28;20523;-70
2022/08/15 06:48:45;;;;;;;4.43;3.50;;;23.10;83.40;;;;;;5067869;28;20461;-70
2022/08/15 06:51:12;;;;;;;3.60;3.23;;;23.20;83.70;;;;;;5068570;28;20983;-69
2022/08/15 06:53:50;;;;;;;4.83;3.33;;;23.10;83.50;;;;;;5066098;28;20458;-70
2022/08/15 06:56:19;;;;;;;4.57;4.00;;;23.20;84.40;;;;;;5066550;28;20533;-70
2022/08/15 06:59:12;;;;;;;4.43;4.03;;;23.10;83.80;;;;;;5051525;28;20817;-69
2022/08/15 07:02:16;;;;;;;5.10;3.80;;;23.10;84.20;;;;;;5062264;28;20447;-69
2022/08/15 07:05:09;;;;;;;4.07;3.60;;;23.10;85.00;;;;;;5030907;28;20534;-69
2022/08/15 07:08:09;;;;;;;7.20;4.43;;;23.10;84.60;;;;;;5068393;28;20496;-69
2022/08/15 07:10:46;;;;;;;4.17;3.73;;;23.10;85.00;;;;;;5051445;28;20436;-69
2022/08/15 07:13:24;;;;;;;7.47;3.83;;;23.00;85.30;;;;;;5067595;28;20453;-69
2022/08/15 07:15:56;;;;;;;3.90;3.60;;;22.90;86.30;;;;;;5057389;28;20454;-69
2022/08/15 07:18:34;;;;;;;5.33;3.40;;;22.90;87.00;;;;;;5059610;28;20446;-69
2022/08/15 07:21:05;;;;;;;3.67;2.90;;;22.90;87.20;;;;;;5068285;28;20441;-69
2022/08/15 07:23:35;;;;;;;5.10;3.43;;;22.80;87.60;;;;;;5060151;28;20453;-69
2022/08/15 07:26:11;;;;;;;5.57;3.83;;;22.90;87.30;;;;;;5068409;28;20434;-69
2022/08/15 07:28:42;;;;;;;5.60;3.63;;;22.90;87.10;;;;;;5064896;28;20449;-69
2022/08/15 07:31:17;;;;;;;5.00;4.27;;;22.90;87.50;;;;;;5066616;28;20449;-69
2022/08/15 07:33:50;;;;;;;4.17;3.70;;;22.90;88.00;;;;;;5065293;28;20522;-69
2022/08/15 07:36:20;;;;;;;3.77;3.40;;;22.80;88.00;;;;;;5066234;28;20456;-70
2022/08/15 07:38:47;;;;;;;4.37;3.90;;;22.80;88.30;;;;;;5067248;28;20445;-68
2022/08/15 07:41:32;;;;;;;3.20;3.00;;;22.70;88.20;;;;;;5068189;28;20454;-69
2022/08/15 07:44:15;;;;;;;5.37;3.77;;;22.60;88.60;;;;;;5067042;28;20457;-69
2022/08/15 07:46:56;;;;;;;5.37;3.73;;;22.60;88.80;;;;;;5040277;28;20458;-70
2022/08/15 07:49:28;;;;;;;4.93;3.73;;;22.60;88.90;;;;;;5063555;28;20997;-69
2022/08/15 07:51:59;;;;;;;5.53;3.90;;;22.40;89.50;;;;;;5064827;28;20957;-69
2022/08/15 07:54:41;;;;;;;3.60;3.30;;;22.50;89.50;;;;;;5068695;28;20457;-69
2022/08/15 07:57:18;;;;;;;4.20;3.60;;;22.50;89.50;;;;;;5062489;28;20526;-69
2022/08/15 08:00:14;;;;;;;4.07;3.77;;;22.50;89.90;;;;;;5076341;28;20472;-69
2022/08/15 08:03:21;;;;;;;3.87;3.47;;;22.50;90.40;;;;;;5063031;28;20461;-69
2022/08/15 08:06:27;;;;;;;4.23;3.60;;;22.40;90.10;;;;;;5045952;28;20456;-69
2022/08/15 08:09:14;;;;;;;7.30;3.93;;;22.40;90.40;;;;;;5048257;28;20491;-69
2022/08/15 08:11:44;;;;;;;6.67;3.30;;;22.40;90.50;;;;;;5057960;28;20469;-69
2022/08/15 08:14:29;;;;;;;4.07;3.67;;;22.40;90.60;;;;;;5075536;28;20497;-69
2022/08/15 08:17:18;;;;;;;4.27;3.63;;;22.40;90.60;;;;;;5068636;28;20476;-69
2022/08/15 08:19:55;;;;;;;5.00;3.93;;;22.40;90.50;;;;;;5043576;28;20458;-69
2022/08/15 08:22:37;;;;;;;3.90;3.60;;;22.40;90.70;;;;;;5066499;28;20543;-69
2022/08/15 08:25:29;;;;;;;4.53;4.10;;;22.40;90.80;;;;;;5063585;28;20445;-69
2022/08/15 08:28:17;;;;;;;3.97;3.63;;;22.40;90.70;;;;;;5044140;28;20552;-69
2022/08/15 08:31:12;;;;;;;3.90;3.60;;;22.40;90.80;;;;;;5066720;28;20469;-69
2022/08/15 08:34:11;;;;;;;4.20;3.70;;;22.40;91.20;;;;;;5048361;28;20441;-70
2022/08/15 08:37:14;;;;;;;5.40;4.30;;;22.30;91.30;;;;;;5064533;28;20464;-69
2022/08/15 08:39:52;;;;;;;4.27;3.73;;;22.30;91.20;;;;;;5032770;28;20475;-69
2022/08/15 08:42:38;;;;;;;3.80;3.50;;;22.40;91.30;;;;;;5043320;28;20508;-69
2022/08/15 08:45:06;;;;;;;4.13;3.83;;;22.30;91.40;;;;;;5069790;28;20449;-69
2022/08/15 08:47:51;;;;;;;4.67;4.07;;;22.40;91.80;;;;;;5084752;28;20469;-69
2022/08/15 08:50:46;;;;;;;4.47;4.07;;;22.40;91.70;;;;;;5062680;28;21009;-68
2022/08/15 08:53:28;;;;;;;4.20;3.80;;;22.40;91.90;;;;;;5068289;28;20540;-70
2022/08/15 08:56:05;;;;;;;4.00;3.60;;;22.40;92.60;;;;;;5069568;28;20449;-70
2022/08/15 08:58:40;;;;;;;4.63;4.20;;;22.40;92.70;;;;;;5070648;28;20468;-69
2022/08/15 09:01:10;;;;;;;5.07;4.07;;;22.50;92.70;;;;;;5064410;28;20455;-70
2022/08/15 09:04:07;;;;;;;4.63;4.23;;;22.50;92.70;;;;;;5059068;28;20472;-69
2022/08/15 09:06:38;;;;;;;3.90;3.60;;;22.60;93.00;;;;;;5058100;28;20447;-69
2022/08/15 09:09:21;;;;;;;4.27;3.87;;;22.60;93.00;;;;;;5048847;28;20523;-69
2022/08/15 09:11:54;;;;;;;4.63;4.03;;;22.60;93.00;;;;;;5081356;28;20875;-69
2022/08/15 09:14:22;;;;;;;4.53;3.90;;;22.60;92.80;;;;;;5063811;28;20461;-69
2022/08/15 09:16:51;;;;;;;6.30;4.53;;;22.70;92.70;;;;;;5070179;28;20453;-69
2022/08/15 09:19:23;;;;;;;4.03;3.73;;;22.60;92.70;;;;;;5060467;28;20527;-68
2022/08/15 09:21:50;;;;;;;3.90;3.60;;;22.60;93.00;;;;;;5068679;28;20476;-69
2022/08/15 09:24:19;;;;;;;4.47;3.83;;;22.60;92.70;;;;;;5067827;28;20464;-69
2022/08/15 09:27:04;;;;;;;4.17;3.87;;;22.60;92.90;;;;;;5067692;28;20528;-69
2022/08/15 09:29:37;;;;;;;3.97;3.67;;;22.70;92.70;;;;;;5051566;28;20549;-69
2022/08/15 09:32:27;;;;;;;4.83;4.33;;;22.70;93.00;;;;;;5043918;28;20465;-69
2022/08/15 09:35:15;;;;;;;4.07;3.47;;;22.70;92.70;;;;;;5060369;28;20457;-69
2022/08/15 09:38:14;;;;;;;4.30;3.90;;;22.70;92.80;;;;;;5047335;28;20840;-69
2022/08/15 09:41:00;;;;;;;4.37;3.97;;;22.70;92.70;;;;;;5080478;28;20456;-69
2022/08/15 09:43:48;;;;;;;4.90;4.50;;;22.70;92.80;;;;;;5063351;28;20482;-70
2022/08/15 09:46:41;;;;;;;7.63;3.70;;;22.80;92.90;;;;;;5084051;28;20446;-69
2022/08/15 09:49:54;;;;;;;4.33;3.80;;;22.80;92.80;;;;;;5065323;28;20462;-69
2022/08/15 09:52:55;;;;;;;4.37;4.00;;;22.90;92.70;;;;;;5062049;28;20454;-69
2022/08/15 09:55:39;;;;;;;4.90;4.10;;;22.90;92.80;;;;;;5060694;28;20450;-70
2022/08/15 09:58:20;;;;;;;4.50;4.17;;;23.00;92.90;;;;;;5050850;28;20464;-69
2022/08/15 10:01:30;;;;;;;4.57;4.17;;;23.10;93.40;;;;;;5064237;28;20594;-70
2022/08/15 10:04:03;;;;;;;4.53;3.97;;;23.10;93.10;;;;;;5037866;28;20553;-70
2022/08/15 10:07:17;;;;;;;4.37;3.70;;;23.20;93.10;;;;;;5027016;28;20561;-70
2022/08/15 10:10:01;;;;;;;4.30;3.90;;;23.40;93.20;;;;;;5041275;28;20476;-70
2022/08/15 10:12:28;;;;;;;3.87;3.50;;;23.50;93.30;;;;;;5060023;28;20506;-69
2022/08/15 10:15:06;;;;;;;4.80;4.30;;;23.60;93.10;;;;;;5065027;28;20473;-70
2022/08/15 10:17:35;;;;;;;4.57;4.23;;;23.60;92.60;;;;;;5058565;28;20445;-69
2022/08/15 10:20:15;;;;;;;5.07;4.67;;;23.60;92.40;;;;;;5078587;28;20462;-69
2022/08/15 10:23:13;;;;;;;4.40;4.10;;;23.70;92.40;;;;;;5058131;28;20955;-69
2022/08/15 10:25:46;;;;;;;4.23;3.83;;;23.80;92.60;;;;;;5041069;28;20505;-69
2022/08/15 10:28:12;;;;;;;5.33;4.30;;;23.80;92.60;;;;;;5063681;28;20465;-70
2022/08/15 10:31:05;;;;;;;4.57;4.27;;;23.90;92.40;;;;;;5060783;28;20815;-68
2022/08/15 10:33:30;;;;;;;3.50;3.30;;;24.00;92.40;;;;;;5042903;28;20654;-70
2022/08/15 10:36:14;;;;;;;5.00;4.63;;;24.00;91.80;;;;;;5055510;28;20450;-70
2022/08/15 10:39:11;;;;;;;4.90;4.40;;;24.00;91.70;;;;;;5064333;27;20218;-70
2022/08/15 10:41:50;;;;;;;5.03;4.50;;;24.10;91.70;;;;;;5053945;28;20447;-69
2022/08/15 10:44:32;;;;;;;4.37;4.07;;;24.10;91.40;;;;;;5037118;28;20472;-70
2022/08/15 10:47:54;;;;;;;3.67;3.47;;;24.10;91.20;;;;;;5060261;28;20476;-70
2022/08/15 10:50:33;;;;;;;4.87;4.27;;;24.20;91.30;;;;;;5021110;28;20458;-70
2022/08/15 10:53:23;;;;;;;7.60;4.43;;;24.20;91.10;;;;;;5048920;28;20454;-69
2022/08/15 10:55:48;;;;;;;5.10;4.70;;;24.20;91.10;;;;;;5062005;28;20824;-69
2022/08/15 10:58:19;;;;;;;4.70;4.30;;;24.20;91.00;;;;;;5062068;28;20448;-68
2022/08/15 11:01:06;;;;;;;4.70;4.30;;;24.20;90.80;;;;;;5061690;28;20225;-69
2022/08/15 11:03:53;;;;;;;7.63;4.33;;;24.30;90.60;;;;;;5059037;28;20452;-69
2022/08/15 11:06:21;;;;;;;4.63;4.20;;;24.30;90.60;;;;;;5060361;28;20453;-70
2022/08/15 11:08:57;;;;;;;4.40;4.03;;;24.20;90.40;;;;;;5066545;28;20987;-69
2022/08/15 11:11:32;;;;;;;4.17;3.87;;;24.20;90.30;;;;;;5074551;28;20861;-69
2022/08/15 11:13:59;;;;;;;4.27;3.87;;;24.20;89.80;;;;;;5060660;28;20477;-70
2022/08/15 11:16:37;;;;;;;4.47;4.17;;;24.20;89.40;;;;;;5047768;28;20467;-69
2022/08/15 11:19:29;;;;;;;4.87;4.33;;;24.10;90.40;;;;;;5072663;28;20449;-69
2022/08/15 11:22:01;;;;;;;5.63;4.97;;;24.20;91.00;;;;;;5062832;28;20465;-70
2022/08/15 11:24:34;;;;;;;8.13;4.80;;;24.20;91.70;;;;;;5066788;28;20576;-69
2022/08/15 11:27:23;;;;;;;9.03;4.90;;;24.20;92.70;;;;;;5059529;28;20453;-69
2022/08/15 11:29:52;;;;;;;5.73;5.20;;;24.20;93.50;;;;;;5065163;28;20453;-69
2022/08/15 11:32:38;;;;;;;4.80;4.30;;;24.20;93.70;;;;;;5064917;28;20473;-69
2022/08/15 11:35:26;;;;;;;5.73;3.63;;;24.10;94.10;;;;;;5056428;28;20504;-69
2022/08/15 11:37:56;;;;;;;4.33;2.97;;;24.10;93.20;;;;;;5059738;28;20555;-70
2022/08/15 11:40:21;;;;;;;2.60;2.40;;;23.80;92.80;;;;;;5060133;28;20504;-70
2022/08/15 11:42:50;;;;;;;2.57;2.37;;;23.60;92.50;;;;;;5066126;28;20458;-70
2022/08/15 11:45:20;;;;;;;3.60;2.67;;;23.60;92.90;;;;;;5048873;28;20219;-69
2022/08/15 11:47:59;;;;;;;2.33;2.23;;;23.40;92.80;;;;;;5062242;28;20907;-69
2022/08/15 11:50:37;;;;;;;3.10;2.90;;;23.30;93.40;;;;;;5054427;28;20441;-69
2022/08/15 11:53:07;;;;;;;3.60;2.90;;;23.30;94.30;;;;;;5053792;28;20500;-69
2022/08/15 11:55:32;;;;;;;4.73;3.77;;;23.30;94.10;;;;;;5067037;28;20444;-69
2022/08/15 11:58:00;;;;;;;3.50;3.03;;;23.40;94.60;;;;;;5064732;28;22205;-69
2022/08/15 12:00:42;;;;;;;3.00;2.80;;;23.40;94.60;;;;;;5067472;28;20219;-69
2022/08/15 12:03:23;;;;;;;3.47;3.20;;;23.40;94.40;;;;;;5082156;28;20849;-68
2022/08/15 12:05:52;;;;;;;3.07;2.87;;;23.40;94.20;;;;;;5064888;28;20484;-69
2022/08/15 12:08:30;;;;;;;2.90;2.70;;;23.40;94.00;;;;;;5064728;28;20471;-69
2022/08/15 12:11:14;;;;;;;3.03;2.83;;;23.30;93.90;;;;;;5066443;28;20480;-69
2022/08/15 12:13:52;;;;;;;2.67;2.47;;;23.30;93.90;;;;;;5065764;28;20539;-69
2022/08/15 12:16:38;;;;;;;2.43;2.23;;;23.30;94.00;;;;;;5056687;28;20446;-69
2022/08/15 12:19:30;;;;;;;2.20;2.10;;;23.30;93.90;;;;;;5064340;28;20460;-70
2022/08/15 12:21:58;;;;;;;2.67;2.30;;;23.30;93.90;;;;;;5063615;28;20485;-69
2022/08/15 12:24:28;;;;;;;2.33;2.23;;;23.30;93.90;;;;;;5064580;28;21050;-69
2022/08/15 12:26:56;;;;;;;2.60;2.40;;;23.30;93.70;;;;;;5057350;28;20454;-69
2022/08/15 12:29:24;;;;;;;2.27;2.17;;;23.30;93.30;;;;;;5058499;28;20490;-69
2022/08/15 12:31:53;;;;;;;3.00;2.80;;;23.30;93.20;;;;;;5064589;28;20576;-70
2022/08/15 12:34:26;;;;;;;2.63;2.43;;;23.30;93.10;;;;;;5062879;28;20449;-69
2022/08/15 12:36:52;;;;;;;3.23;2.90;;;23.30;93.10;;;;;;5041971;28;21079;-70
2022/08/15 12:39:19;;;;;;;2.90;2.70;;;23.40;92.80;;;;;;5047793;28;20457;-70
2022/08/15 12:41:49;;;;;;;2.80;2.60;;;23.40;92.80;;;;;;5064839;28;20510;-69
2022/08/15 12:44:24;;;;;;;2.73;2.53;;;23.50;92.70;;;;;;5061058;28;21005;-69
2022/08/15 12:46:51;;;;;;;2.73;2.53;;;23.60;92.30;;;;;;5048997;28;20572;-70
2022/08/15 12:49:17;;;;;;;3.50;3.20;;;23.70;92.80;;;;;;5058136;28;20470;-68
2022/08/15 12:51:43;;;;;;;2.70;2.50;;;23.80;92.60;;;;;;5067647;28;20468;-69
2022/08/15 12:54:09;;;;;;;3.10;2.90;;;23.80;92.20;;;;;;5055966;28;20535;-67
2022/08/15 12:56:35;;;;;;;2.93;2.70;;;23.90;92.30;;;;;;5065943;28;20544;-69
2022/08/15 12:59:05;;;;;;;3.00;2.70;;;24.00;92.20;;;;;;5061364;28;20218;-70
2022/08/15 13:01:36;;;;;;;2.93;2.73;;;24.00;92.00;;;;;;5043584;28;20484;-70
2022/08/15 13:04:06;;;;;;;2.70;2.50;;;24.10;91.60;;;;;;5050705;28;21041;-69
2022/08/15 13:06:36;;;;;;;2.90;2.70;;;24.10;92.00;;;;;;5060301;28;20454;-70
2022/08/15 13:09:09;;;;;;;3.23;3.03;;;24.30;92.30;;;;;;5057116;28;20569;-69
2022/08/15 13:11:37;;;;;;;3.50;3.20;;;24.50;92.10;;;;;;5062081;28;20448;-69
2022/08/15 13:14:03;;;;;;;3.63;3.40;;;24.50;91.60;;;;;;5062801;28;21064;-69
2022/08/15 13:16:30;;;;;;;3.73;3.43;;;24.50;91.80;;;;;;5052094;28;20460;-70
2022/08/15 13:18:57;;;;;;;5.70;3.37;;;24.60;91.70;;;;;;5069242;28;20577;-70
2022/08/15 13:24:07;;;;;;;3.27;2.80;;;24.70;91.50;;;;;;5052867;28;20495;-70
2022/08/15 13:26:39;;;;;;;2.87;2.67;;;24.70;91.50;;;;;;5064526;28;20854;-70
2022/08/15 13:29:05;;;;;;;3.57;3.27;;;24.80;91.40;;;;;;5063441;28;20597;-70
2022/08/15 13:31:31;;;;;;;2.93;2.73;;;24.80;91.10;;;;;;5065770;28;20451;-70